Time;durP1;ratioP1;P1;durP2;ratioP2;P2;SDS_P1;SDS_P2;PMS_P1;PMS_P2;Temp;Humidity;BMP_temperature;BMP_pressure;BME280_temperature;BME280_humidity;BME280_pressure;Samples;Min_cycle;Max_cycle;Signal;HPM_P1;HPM_P2
2021/03/17 00:00:58;;;;;;;71.40;35.63;;;;;;;2.97;81.29;98751.38;4174591;84;21710;-87
2021/03/17 00:07:17;;;;;;;66.53;35.88;;;;;;;2.96;81.31;98758.70;4154628;84;21157;-86
2021/03/17 00:13:38;;;;;;;68.22;35.50;;;;;;;3.01;81.38;98750.94;4122950;86;21222;-87
2021/03/17 00:19:58;;;;;;;70.22;35.03;;;;;;;3.04;81.31;98746.22;4124030;86;21549;-89
2021/03/17 00:26:18;;;;;;;74.92;37.15;;;;;;;3.03;81.42;98741.39;4122893;86;21213;-87
2021/03/17 00:32:39;;;;;;;71.45;35.80;;;;;;;3.00;81.30;98743.41;4121376;86;21410;-87
2021/03/17 00:39:01;;;;;;;74.17;37.13;;;;;;;3.02;81.29;98740.38;4122525;86;21169;-87
2021/03/17 00:45:21;;;;;;;72.30;35.85;;;;;;;3.03;81.26;98745.45;4119793;86;21245;-88
2021/03/17 00:51:42;;;;;;;69.65;35.85;;;;;;;2.96;81.37;98730.88;4125542;86;21237;-88
2021/03/17 00:58:02;;;;;;;71.47;36.65;;;;;;;2.98;81.34;98731.33;4122926;86;21484;-87
2021/03/17 01:04:04;;;;;;;65.28;35.45;;;;;;;3.02;81.44;98739.02;4095772;86;21333;-87
2021/03/17 01:10:20;;;;;;;72.20;36.58;;;;;;;3.04;81.31;98740.81;4118362;86;21275;-88
2021/03/17 01:16:22;;;;;;;74.72;36.33;;;;;;;2.98;81.27;98745.64;4134032;85;21159;-86
2021/03/17 01:22:24;;;;;;;69.97;35.68;;;;;;;3.00;81.35;98737.20;4125606;85;21246;-88
2021/03/17 01:28:25;;;;;;;76.60;41.05;;;;;;;3.05;81.33;98738.36;4150456;85;21326;-87
2021/03/17 01:34:29;;;;;;;68.60;36.80;;;;;;;3.03;81.34;98742.74;4138050;85;21189;-87
2021/03/17 01:40:54;;;;;;;73.42;36.93;;;;;;;3.03;81.37;98744.65;4573750;75;23447;-88
2021/03/17 01:46:56;;;;;;;66.10;34.70;;;;;;;2.93;81.35;98747.73;4485637;78;21207;-86
2021/03/17 01:53:10;;;;;;;68.25;35.00;;;;;;;2.95;81.36;98745.51;4494288;78;21604;-86
2021/03/17 01:59:14;;;;;;;68.37;34.90;;;;;;;2.92;81.39;98737.51;4486513;78;21176;-86
2021/03/17 02:05:20;;;;;;;65.75;34.05;;;;;;;2.90;81.46;98731.62;4487883;78;21176;-87
2021/03/17 02:11:21;;;;;;;67.23;34.77;;;;;;;2.84;81.51;98734.86;4490383;78;21156;-86
2021/03/17 02:17:27;;;;;;;68.97;36.03;;;;;;;2.82;81.53;98738.45;4484113;78;21195;-86
2021/03/17 02:23:34;;;;;;;72.15;34.73;;;;;;;2.85;81.53;98735.11;4490459;78;21207;-87
2021/03/17 02:30:13;;;;;;;65.90;34.30;;;;;;;2.86;81.47;98732.62;4485301;77;21204;-86
2021/03/17 02:36:54;;;;;;;65.42;34.30;;;;;;;2.83;81.30;98735.99;4485706;78;21746;-87
2021/03/17 02:43:25;;;;;;;67.97;34.25;;;;;;;2.75;81.49;98730.89;4456345;78;21172;-90
2021/03/17 02:49:32;;;;;;;64.50;34.15;;;;;;;2.73;81.47;98735.02;4456910;78;21160;-88
2021/03/17 02:55:39;;;;;;;65.60;32.93;;;;;;;2.74;81.52;98733.92;4453719;78;21584;-86
2021/03/17 03:01:43;;;;;;;65.72;33.67;;;;;;;2.70;81.55;98731.08;4456559;78;21163;-86
2021/03/17 03:07:49;;;;;;;65.05;33.15;;;;;;;2.66;81.59;98732.84;4456774;78;21108;-87
2021/03/17 03:13:51;;;;;;;55.15;31.05;;;;;;;2.62;81.63;98725.73;4455565;78;22419;-86
2021/03/17 03:19:56;;;;;;;61.73;31.35;;;;;;;2.64;81.56;98722.14;4456095;78;21147;-87
2021/03/17 03:25:58;;;;;;;61.90;30.10;;;;;;;2.64;81.57;98720.80;4454945;78;21175;-91
2021/03/17 03:32:04;;;;;;;73.75;33.90;;;;;;;2.62;81.63;98718.97;4455277;78;21203;-86
2021/03/17 03:38:08;;;;;;;70.15;35.33;;;;;;;2.60;81.63;98731.46;4456413;78;21647;-86
2021/03/17 03:44:10;;;;;;;62.45;33.60;;;;;;;2.61;81.60;98728.20;4430461;78;21219;-86
2021/03/17 03:50:16;;;;;;;67.65;34.53;;;;;;;2.61;81.56;98734.41;4454068;78;21241;-87
2021/03/17 03:56:44;;;;;;;66.53;33.92;;;;;;;2.61;81.62;98736.31;4443785;78;32271;-88
2021/03/17 04:02:50;;;;;;;71.65;34.10;;;;;;;2.61;81.72;98734.97;4235327;82;21219;-88
2021/03/17 04:08:56;;;;;;;66.90;33.97;;;;;;;2.62;81.74;98742.74;4239509;82;21205;-87
2021/03/17 04:15:00;;;;;;;70.67;34.58;;;;;;;2.67;81.62;98754.72;4239370;82;21149;-88
2021/03/17 04:21:10;;;;;;;67.45;33.67;;;;;;;2.71;81.65;98746.75;4236995;82;21213;-87
2021/03/17 04:27:13;;;;;;;73.92;35.30;;;;;;;2.71;81.62;98746.75;4226288;83;21693;-88
2021/03/17 04:33:16;;;;;;;74.97;34.75;;;;;;;2.69;81.56;98745.70;4240401;83;21172;-87
2021/03/17 04:39:18;;;;;;;65.70;35.35;;;;;;;2.70;81.54;98750.55;4231065;82;21626;-88
2021/03/17 04:45:20;;;;;;;114.32;49.30;;;;;;;2.68;81.49;98747.38;4246071;82;21227;-87
2021/03/17 04:51:23;;;;;;;83.50;39.48;;;;;;;2.66;81.54;98753.70;4247613;82;21353;-89
2021/03/17 04:57:27;;;;;;;77.65;35.05;;;;;;;2.60;81.58;98749.03;4245270;82;21197;-87
2021/03/17 05:03:29;;;;;;;73.65;38.28;;;;;;;2.60;81.61;98755.02;4228387;82;21682;-88
2021/03/17 05:09:33;;;;;;;77.42;38.73;;;;;;;2.65;81.53;98762.90;4242817;82;21227;-88
2021/03/17 05:15:37;;;;;;;74.12;37.93;;;;;;;2.65;81.52;98756.95;4239782;82;21203;-87
2021/03/17 05:21:39;;;;;;;73.72;37.20;;;;;;;2.64;81.56;98770.23;4242641;82;21294;-88
2021/03/17 05:27:42;;;;;;;73.47;34.60;;;;;;;2.60;81.63;98773.93;4246770;82;21798;-88
2021/03/17 05:33:44;;;;;;;73.75;36.35;;;;;;;2.62;81.69;98774.37;4241666;82;21164;-87
2021/03/17 05:39:46;;;;;;;68.67;35.50;;;;;;;2.65;81.62;98773.16;4257607;82;21738;-87
2021/03/17 05:45:48;;;;;;;58.42;30.40;;;;;;;2.68;81.59;98779.81;4249746;82;21164;-87
2021/03/17 05:51:50;;;;;;;58.28;29.63;;;;;;;2.69;81.59;98776.78;4258800;82;21369;-89
2021/03/17 05:57:53;;;;;;;69.15;36.05;;;;;;;2.72;81.44;98782.91;4269624;82;21222;-88
2021/03/17 06:10:13;;;;;;;63.40;31.37;;;;;;;2.85;81.39;98781.84;4434927;79;22813;-88
2021/03/17 06:16:19;;;;;;;57.53;29.32;;;;;;;2.91;81.31;98796.73;4382874;80;21218;-88
2021/03/17 06:22:21;;;;;;;56.75;30.05;;;;;;;3.00;81.27;98798.05;4377847;80;21194;-88
2021/03/17 06:28:24;;;;;;;60.25;30.43;;;;;;;3.04;81.00;98808.41;4379090;80;21775;-87
2021/03/17 06:34:25;;;;;;;58.30;30.92;;;;;;;3.14;81.03;98812.89;4378429;80;21204;-87
2021/03/17 06:40:34;;;;;;;52.98;28.62;;;;;;;3.30;80.72;98817.14;4376612;80;21720;-87
2021/03/17 06:46:36;;;;;;;53.30;28.45;;;;;;;3.41;80.54;98816.16;4376998;80;21235;-87
2021/03/17 06:52:41;;;;;;;54.38;28.15;;;;;;;3.49;80.48;98822.06;4382884;80;21472;-87
2021/03/17 06:58:49;;;;;;;50.45;26.33;;;;;;;3.60;80.09;98821.33;4382192;80;21216;-87
2021/03/17 07:04:53;;;;;;;50.45;25.85;;;;;;;3.79;80.25;98822.94;4380375;80;21358;-88
2021/03/17 07:10:59;;;;;;;50.67;27.10;;;;;;;3.83;79.83;98829.84;4382633;80;21200;-86
2021/03/17 07:17:01;;;;;;;42.33;23.50;;;;;;;3.90;79.74;98832.22;4377839;80;21336;-87
2021/03/17 07:23:36;;;;;;;55.03;23.98;;;;;;;3.98;79.21;98836.76;4383952;80;21185;-87
2021/03/17 07:29:37;;;;;;;39.45;22.98;;;;;;;4.13;78.84;98837.48;4380266;79;21743;-86
2021/03/17 07:35:39;;;;;;;42.55;25.57;;;;;;;4.29;78.67;98837.03;4384971;79;21213;-87
2021/03/17 07:41:41;;;;;;;46.68;26.45;;;;;;;4.48;78.41;98831.86;4377611;80;21193;-87
2021/03/17 07:47:43;;;;;;;48.60;25.70;;;;;;;4.71;78.32;98836.27;4379497;80;21260;-88
2021/03/17 07:53:51;;;;;;;49.27;24.50;;;;;;;4.84;77.85;98845.95;4375387;80;21649;-88
2021/03/17 07:59:55;;;;;;;41.53;22.77;;;;;;;5.01;77.94;98848.45;4375244;80;21199;-89
2021/03/17 08:05:59;;;;;;;65.42;26.80;;;;;;;4.96;77.30;98847.88;4383441;80;21229;-89
2021/03/17 08:12:07;;;;;;;43.35;23.38;;;;;;;4.97;75.67;98854.88;4371680;80;21196;-87
2021/03/17 08:18:34;;;;;;;40.17;21.30;;;;;;;5.07;76.70;98859.29;4377330;80;21612;-87
2021/03/17 08:24:41;;;;;;;34.83;20.55;;;;;;;5.68;76.24;98861.26;4385376;80;21767;-87
2021/03/17 08:30:43;;;;;;;40.23;22.73;;;;;;;5.68;76.24;98861.26;4388108;80;21372;-88
2021/03/17 08:36:47;;;;;;;56.60;30.00;;;;;;;5.72;75.07;98863.49;4380247;80;21202;-87
2021/03/17 08:42:57;;;;;;;44.03;24.50;;;;;;;5.81;75.37;98858.13;4357545;80;21631;-87
2021/03/17 08:49:11;;;;;;;50.98;23.83;;;;;;;5.88;73.08;98869.23;4380901;79;21533;-87
2021/03/17 08:55:23;;;;;;;25.45;15.30;;;;;;;5.91;73.66;98875.34;4373533;80;21177;-88
2021/03/17 09:01:32;;;;;;;24.45;14.43;;;;;;;5.98;69.99;98874.16;4377115;80;21218;-88
2021/03/17 09:07:35;;;;;;;24.07;14.40;;;;;;;6.21;68.40;98875.74;4264291;80;10000066;-89
2021/03/17 09:13:53;;;;;;;29.37;15.53;;;;;;;7.18;66.94;98870.33;4389617;80;21157;-88
2021/03/17 09:20:06;;;;;;;23.90;13.00;;;;;;;7.45;66.63;98869.38;4337771;80;40000;-90
2021/03/17 09:26:09;;;;;;;33.23;18.00;;;;;;;7.84;64.84;98870.41;4227616;82;21371;-89
2021/03/17 09:32:11;;;;;;;26.15;13.45;;;;;;;7.76;64.18;98874.69;4225373;82;21753;-88
2021/03/17 09:38:15;;;;;;;21.70;12.23;;;;;;;7.21;63.55;98879.95;4230308;82;21230;-87
2021/03/17 09:44:21;;;;;;;22.25;12.60;;;;;;;7.41;61.70;98878.83;4228940;82;21214;-88
2021/03/17 09:50:25;;;;;;;26.57;14.55;;;;;;;8.05;62.61;98871.36;4230380;82;21689;-88
2021/03/17 09:56:42;;;;;;;34.27;17.73;;;;;;;8.28;62.39;98879.05;4223422;82;21334;-88
2021/03/17 10:02:47;;;;;;;22.58;12.30;;;;;;;7.19;61.10;98887.67;4231467;82;21221;-88
2021/03/17 10:08:55;;;;;;;23.32;12.78;;;;;;;6.63;61.64;98888.26;4193458;82;22152;-88
2021/03/17 10:15:11;;;;;;;26.55;13.68;;;;;;;7.97;61.30;98883.30;4184178;83;21200;-88
2021/03/17 10:21:14;;;;;;;32.90;13.53;;;;;;;8.80;60.67;98879.75;4180400;83;21250;-88
2021/03/17 10:27:25;;;;;;;36.58;15.23;;;;;;;7.44;58.03;98886.84;4182261;83;21613;-89
2021/03/17 10:33:26;;;;;;;20.80;11.20;;;;;;;7.16;57.57;98891.10;4186917;83;21243;-89
2021/03/17 10:39:35;;;;;;;23.32;13.03;;;;;;;8.91;58.55;98883.44;4182089;83;21211;-88
2021/03/17 10:45:53;;;;;;;22.65;10.20;;;;;;;9.50;55.87;98882.95;4212590;84;21225;-87
2021/03/17 10:51:57;;;;;;;15.53;9.70;;;;;;;7.85;56.16;98882.07;4216461;83;21187;-89
2021/03/17 10:58:13;;;;;;;25.05;12.23;;;;;;;8.21;57.44;98864.44;4215290;83;21343;-89
2021/03/17 11:04:17;;;;;;;21.65;9.90;;;;;;;8.20;54.85;98878.67;4214014;84;21398;-88
2021/03/17 11:10:50;;;;;;;23.75;12.28;;;;;;;8.64;55.71;98876.35;4225608;82;21214;-89
2021/03/17 11:16:53;;;;;;;20.45;11.35;;;;;;;7.91;54.72;98872.45;4222757;82;21259;-88
2021/03/17 11:22:55;;;;;;;19.02;10.78;;;;;;;8.55;53.75;98857.48;4241337;82;21517;-91
2021/03/17 11:29:00;;;;;;;37.25;17.52;;;;;;;8.42;51.63;98872.48;4235123;82;21220;-89
2021/03/17 11:35:05;;;;;;;34.95;13.75;;;;;;;9.33;51.75;98869.05;4229231;82;21301;-90
2021/03/17 11:41:08;;;;;;;17.90;9.88;;;;;;;9.14;50.17;98871.88;4229511;82;21192;-90
2021/03/17 11:47:09;;;;;;;15.85;9.48;;;;;;;9.56;52.42;98867.00;4232830;82;21670;-89
2021/03/17 11:53:12;;;;;;;19.82;10.00;;;;;;;9.61;49.58;98854.38;4231289;82;21223;-90
2021/03/17 11:59:14;;;;;;;16.32;9.50;;;;;;;8.77;50.05;98863.51;4220183;82;21178;-89
2021/03/17 12:11:41;;;;;;;24.18;10.88;;;;;;;8.29;49.73;98864.81;4378611;79;27266;-89
2021/03/17 12:17:46;;;;;;;17.90;10.25;;;;;;;7.97;49.53;98869.08;4268038;82;21196;-89
2021/03/17 12:23:48;;;;;;;15.15;8.83;;;;;;;8.42;49.62;98869.75;4270048;82;21333;-91
2021/03/17 12:29:50;;;;;;;12.18;7.08;;;;;;;7.69;49.41;98872.61;4259284;82;21628;-91
2021/03/17 12:35:52;;;;;;;17.62;8.25;;;;;;;7.46;48.63;98875.03;4261428;81;21205;-91
2021/03/17 12:41:54;;;;;;;16.87;8.73;;;;;;;7.38;49.25;98882.83;4274984;82;21347;-90
2021/03/17 12:47:56;;;;;;;23.05;10.13;;;;;;;7.65;49.56;98880.50;4243157;81;21213;-92
2021/03/17 12:53:58;;;;;;;17.95;7.40;;;;;;;6.86;50.24;98899.53;4269512;82;21209;-88
2021/03/17 12:59:59;;;;;;;18.20;9.50;;;;;;;7.07;50.01;98902.77;4277034;82;21335;-88
2021/03/17 13:06:01;;;;;;;15.88;8.38;;;;;;;6.96;50.44;98916.69;4191115;82;32911;-87
2021/03/17 13:12:04;;;;;;;13.25;8.03;;;;;;;6.46;51.62;98927.48;4080308;86;21235;-89
2021/03/17 13:18:10;;;;;;;19.00;8.53;;;;;;;5.91;52.64;98936.47;4076700;86;21222;-90
2021/03/17 13:24:12;;;;;;;12.40;7.12;;;;;;;5.57;53.44;98932.13;4076808;85;21710;-87
2021/03/17 13:30:16;;;;;;;13.35;6.75;;;;;;;5.42;54.01;98940.41;4077314;86;21860;-89
2021/03/17 13:36:19;;;;;;;21.45;9.35;;;;;;;5.75;53.86;98948.36;4077669;86;21242;-88
2021/03/17 13:42:22;;;;;;;16.23;8.70;;;;;;;5.71;53.67;98954.27;4077279;86;21413;-88
2021/03/17 13:48:31;;;;;;;26.07;10.30;;;;;;;5.58;53.54;98966.28;4076408;86;21244;-88
2021/03/17 13:54:35;;;;;;;15.85;7.85;;;;;;;5.08;54.57;98968.03;4077698;86;21238;-87
2021/03/17 14:00:37;;;;;;;18.35;8.48;;;;;;;4.87;54.97;98980.13;4078126;86;21251;-89
2021/03/17 14:06:39;;;;;;;23.45;9.00;;;;;;;4.59;55.33;98982.10;4077070;86;21395;-89
2021/03/17 14:12:41;;;;;;;27.65;11.35;;;;;;;4.54;55.63;98988.31;4079936;86;21239;-89
2021/03/17 14:18:43;;;;;;;19.27;9.23;;;;;;;4.49;55.64;98983.91;4075846;86;21226;-88
2021/03/17 14:24:45;;;;;;;25.48;11.60;;;;;;;4.49;55.81;98995.30;4077666;86;21250;-89
2021/03/17 14:30:47;;;;;;;16.62;9.78;;;;;;;4.32;56.04;98998.19;4078846;86;21265;-90
2021/03/17 14:36:48;;;;;;;20.43;10.90;;;;;;;4.28;56.64;99003.47;4074318;86;21237;-90
2021/03/17 14:42:50;;;;;;;23.75;11.48;;;;;;;4.10;56.88;98995.83;4078818;86;21250;-87
2021/03/17 14:48:52;;;;;;;18.05;9.98;;;;;;;4.11;57.10;98996.05;4077459;86;21383;-87
2021/03/17 14:54:54;;;;;;;15.20;9.05;;;;;;;4.16;57.05;98995.30;4077210;86;21205;-88
2021/03/17 15:00:55;;;;;;;32.60;13.43;;;;;;;4.14;57.32;98995.38;4078264;86;21255;-89
2021/03/17 15:06:57;;;;;;;49.65;15.68;;;;;;;4.07;57.27;98999.20;4075703;86;21705;-87
2021/03/17 15:12:58;;;;;;;30.85;12.80;;;;;;;4.06;57.54;99004.38;4083271;86;21642;-88
2021/03/17 15:19:01;;;;;;;19.80;12.37;;;;;;;4.04;57.74;99008.00;4080527;86;21238;-89
2021/03/17 15:25:04;;;;;;;28.75;13.93;;;;;;;3.94;58.26;99005.13;4079975;86;21628;-89
2021/03/17 15:31:06;;;;;;;23.22;13.53;;;;;;;3.92;58.73;99021.46;4081039;86;21690;-89
2021/03/17 15:37:08;;;;;;;24.45;13.70;;;;;;;3.87;59.56;99022.45;4079854;86;21387;-88
2021/03/17 15:43:10;;;;;;;22.98;12.40;;;;;;;3.78;59.51;99032.56;4081522;86;21226;-88
2021/03/17 15:49:12;;;;;;;22.32;12.90;;;;;;;3.73;59.92;99029.27;4083135;86;21241;-86
2021/03/17 15:55:16;;;;;;;30.02;14.63;;;;;;;3.69;59.98;99033.73;4084521;86;21235;-87
2021/03/17 16:01:18;;;;;;;42.90;15.48;;;;;;;3.68;60.12;99028.10;4082292;86;21191;-88
2021/03/17 16:07:19;;;;;;;34.18;16.60;;;;;;;3.68;60.18;99044.34;4080270;86;21240;-88
2021/03/17 16:13:21;;;;;;;33.45;14.98;;;;;;;3.68;60.23;99047.05;4078896;86;21274;-88
2021/03/17 16:19:23;;;;;;;30.10;13.95;;;;;;;3.64;60.41;99056.38;4081545;86;22516;-89
2021/03/17 16:25:25;;;;;;;24.55;11.83;;;;;;;3.60;60.57;99055.47;3917821;89;21702;-89
2021/03/17 16:31:27;;;;;;;27.32;13.13;;;;;;;3.56;60.72;99065.34;4079550;86;21230;-87
2021/03/17 16:37:28;;;;;;;45.90;16.97;;;;;;;3.54;60.79;99078.41;4079136;86;22387;-88
2021/03/17 16:43:30;;;;;;;27.95;14.98;;;;;;;3.56;61.27;99082.13;4079099;86;21276;-89
2021/03/17 16:49:32;;;;;;;67.62;22.05;;;;;;;3.48;61.09;99090.53;4077225;86;21814;-87
2021/03/17 16:55:33;;;;;;;28.77;15.53;;;;;;;3.46;61.39;99096.05;4080282;86;21372;-89
2021/03/17 17:01:36;;;;;;;26.70;13.65;;;;;;;3.42;61.94;99107.28;4079917;86;22221;-87
2021/03/17 17:07:38;;;;;;;54.23;19.40;;;;;;;3.44;62.43;99110.46;4078154;86;21416;-86
2021/03/17 17:13:40;;;;;;;26.17;16.27;;;;;;;3.45;62.50;99115.55;4081743;86;21221;-88
2021/03/17 17:19:41;;;;;;;30.68;17.87;;;;;;;3.41;62.76;99122.73;4078514;86;21367;-87
2021/03/17 17:25:43;;;;;;;29.72;15.75;;;;;;;3.37;63.25;99123.72;4079314;86;21360;-87
2021/03/17 17:31:45;;;;;;;51.58;18.27;;;;;;;3.33;63.43;99122.76;4081682;86;21404;-88
2021/03/17 17:37:47;;;;;;;31.73;16.23;;;;;;;3.33;63.60;99126.81;4079327;86;21218;-87
2021/03/17 17:43:49;;;;;;;33.60;16.90;;;;;;;3.28;64.07;99137.27;3962810;86;10000056;-89
2021/03/17 17:49:53;;;;;;;35.65;18.05;;;;;;;3.25;64.07;99144.67;4081002;86;21233;-88
2021/03/17 17:55:54;;;;;;;43.33;19.32;;;;;;;3.24;64.18;99151.98;4077995;86;21233;-88
2021/03/17 18:01:56;;;;;;;69.85;23.50;;;;;;;3.19;64.34;99152.73;4082288;86;21242;-88
2021/03/17 18:07:57;;;;;;;29.15;15.45;;;;;;;3.13;64.86;99154.03;4079394;86;21851;-88
2021/03/17 18:13:59;;;;;;;30.80;15.05;;;;;;;3.12;64.95;99159.18;4072435;86;21386;-89
2021/03/17 18:20:03;;;;;;;33.25;16.48;;;;;;;3.14;65.30;99159.66;4073259;86;21263;-88
2021/03/17 18:26:05;;;;;;;30.23;16.05;;;;;;;3.15;65.40;99161.23;4072646;85;21261;-89
2021/03/17 18:32:07;;;;;;;32.65;17.48;;;;;;;3.08;65.55;99152.84;4084388;86;21230;-87
2021/03/17 18:38:09;;;;;;;37.80;19.42;;;;;;;3.05;65.75;99165.08;4076197;85;21243;-88
2021/03/17 18:44:12;;;;;;;48.42;22.13;;;;;;;3.03;65.80;99167.88;4079212;86;21243;-88
2021/03/17 18:50:21;;;;;;;42.13;21.75;;;;;;;3.05;65.97;99161.59;4078975;86;21730;-88
2021/03/17 18:56:23;;;;;;;36.40;17.35;;;;;;;3.06;66.10;99167.23;4074403;85;21296;-87
2021/03/17 19:02:25;;;;;;;66.53;22.30;;;;;;;3.00;66.01;99170.68;4083547;85;21254;-87
2021/03/17 19:08:27;;;;;;;38.73;18.27;;;;;;;2.98;66.11;99169.39;4086604;86;21391;-87
2021/03/17 19:14:29;;;;;;;36.68;18.15;;;;;;;2.99;66.32;99172.35;4075228;86;21478;-89
2021/03/17 19:20:36;;;;;;;36.98;18.05;;;;;;;3.04;66.50;99168.91;4075089;86;21229;-87
2021/03/17 19:26:39;;;;;;;33.83;17.15;;;;;;;3.03;66.46;99166.52;4077686;86;21264;-87
2021/03/17 19:32:45;;;;;;;35.13;16.27;;;;;;;2.98;66.73;99168.84;4069968;86;21230;-88
2021/03/17 19:38:48;;;;;;;37.13;18.80;;;;;;;2.94;66.93;99169.23;4071358;86;21242;-88
2021/03/17 19:44:50;;;;;;;42.25;20.72;;;;;;;2.92;67.17;99166.08;4077695;86;21254;-88
2021/03/17 19:50:53;;;;;;;45.80;20.88;;;;;;;2.95;67.36;99175.44;4071930;86;21226;-89
2021/03/17 19:57:13;;;;;;;40.67;20.50;;;;;;;2.89;67.50;99175.38;4078569;86;21235;-87
2021/03/17 20:03:33;;;;;;;40.08;19.15;;;;;;;2.87;68.06;99174.34;4593413;75;23600;-87
2021/03/17 20:09:57;;;;;;;40.40;19.45;;;;;;;2.82;67.75;99173.70;4499188;78;21169;-87
2021/03/17 20:16:06;;;;;;;43.60;19.52;;;;;;;2.80;67.97;99174.59;4486713;78;21200;-87
2021/03/17 20:22:16;;;;;;;46.02;19.62;;;;;;;2.77;68.10;99180.06;4485422;78;21779;-87
2021/03/17 20:28:19;;;;;;;51.02;24.87;;;;;;;2.74;68.19;99171.25;4490801;78;21160;-89
2021/03/17 20:34:23;;;;;;;41.40;18.77;;;;;;;2.73;68.37;99176.97;4487097;76;21148;-88
2021/03/17 20:40:43;;;;;;;38.65;18.82;;;;;;;2.70;68.39;99175.72;4478100;78;21756;-88
2021/03/17 20:46:50;;;;;;;44.90;19.57;;;;;;;2.67;68.72;99175.00;4484912;78;21164;-88
2021/03/17 20:53:18;;;;;;;37.30;18.75;;;;;;;2.70;68.74;99166.80;4480074;78;21184;-88
2021/03/17 20:59:30;;;;;;;40.52;19.27;;;;;;;2.70;68.99;99176.27;4485746;78;21164;-88
2021/03/17 21:05:35;;;;;;;39.18;19.67;;;;;;;2.67;68.99;99177.70;4492280;78;21164;-87
2021/03/17 21:11:49;;;;;;;26.00;12.93;;;;;;;2.65;68.92;99171.01;4490488;77;21152;-89
2021/03/17 21:18:16;;;;;;;29.63;15.88;;;;;;;2.54;69.09;99180.55;4475747;77;21204;-89
2021/03/17 21:24:22;;;;;;;36.77;16.45;;;;;;;2.37;69.58;99185.94;4491203;78;21700;-89
2021/03/17 21:30:29;;;;;;;31.33;15.75;;;;;;;2.24;69.91;99184.97;4473630;78;21728;-88
2021/03/17 21:36:40;;;;;;;38.10;17.15;;;;;;;2.24;70.41;99175.52;4307054;80;21282;-89
2021/03/17 21:53:37;;;;;;;49.77;20.75;;;;;;;2.35;70.86;99174.10;4484470;78;23013;-88
2021/03/17 21:59:39;;;;;;;57.80;20.08;;;;;;;2.29;70.61;99170.52;4429057;78;21168;-87
2021/03/17 22:05:41;;;;;;;55.63;20.70;;;;;;;2.26;70.99;99166.55;4427293;79;21216;-87
2021/03/17 22:11:42;;;;;;;30.95;14.43;;;;;;;2.29;70.95;99171.32;4430419;78;21183;-87
2021/03/17 22:17:45;;;;;;;27.02;12.98;;;;;;;2.26;70.93;99171.15;4431647;78;21320;-88
2021/03/17 22:23:47;;;;;;;35.33;16.00;;;;;;;2.22;71.24;99174.26;4434274;78;21755;-87
2021/03/17 22:29:48;;;;;;;38.53;14.13;;;;;;;2.22;71.43;99173.71;4428400;78;21617;-88
2021/03/17 22:35:54;;;;;;;25.02;11.80;;;;;;;2.19;71.20;99167.59;4429051;78;21648;-88
2021/03/17 22:41:56;;;;;;;22.62;10.75;;;;;;;2.15;71.29;99170.66;4429635;78;21196;-89
2021/03/17 22:47:58;;;;;;;39.73;13.60;;;;;;;2.15;71.59;99167.97;4432454;78;21184;-87
2021/03/17 22:54:01;;;;;;;21.02;11.28;;;;;;;2.11;71.65;99162.16;4428962;78;21174;-87
2021/03/17 23:00:11;;;;;;;32.95;12.88;;;;;;;2.09;71.68;99167.88;4427394;78;21352;-87
2021/03/17 23:06:13;;;;;;;35.98;13.38;;;;;;;2.07;71.61;99163.34;4434993;78;22119;-87
2021/03/17 23:12:16;;;;;;;26.48;11.12;;;;;;;2.05;71.51;99159.38;4429334;78;21772;-88
2021/03/17 23:18:25;;;;;;;18.55;10.55;;;;;;;2.04;71.64;99162.63;4433287;78;21324;-87
2021/03/17 23:24:41;;;;;;;19.77;9.85;;;;;;;2.03;71.53;99155.64;4429547;78;21200;-87
2021/03/17 23:31:06;;;;;;;20.85;9.38;;;;;;;2.02;71.60;99155.95;4294296;81;21228;-87
2021/03/17 23:37:08;;;;;;;19.67;9.78;;;;;;;2.02;71.69;99165.41;4344440;80;21197;-87
2021/03/17 23:43:10;;;;;;;21.77;9.28;;;;;;;1.99;71.61;99159.29;4339995;80;21175;-88
2021/03/17 23:49:12;;;;;;;15.90;8.15;;;;;;;2.03;71.65;99166.45;4348459;81;22002;-88
2021/03/17 23:55:15;;;;;;;15.78;8.20;;;;;;;2.06;71.57;99164.46;4350172;80;21178;-88
